Time;durP1;ratioP1;P1;durP2;ratioP2;P2;SDS_P1;SDS_P2;PMS_P1;PMS_P2;Temp;Humidity;BMP_temperature;BMP_pressure;BME280_temperature;BME280_humidity;BME280_pressure;Samples;Min_cycle;Max_cycle;Signal;HPM_P1;HPM_P2
2021/08/06 00:01:27;;;;;;;;;;;;;;;16.89;100.00;99526.09;5074545;28;19963;-67
2021/08/06 00:04:11;;;;;;;;;;;;;;;16.87;100.00;99522.78;5076340;28;19974;-66
2021/08/06 00:06:55;;;;;;;;;;;;;;;16.87;100.00;99530.03;5118917;22;20072;-67
2021/08/06 00:09:39;;;;;;;;;;;;;;;16.87;100.00;99525.47;5117278;28;20394;-67
2021/08/06 00:12:23;;;;;;;;;;;;;;;16.84;100.00;99512.44;5118132;28;20445;-67
2021/08/06 00:15:07;;;;;;;;;;;;;;;16.84;100.00;99516.97;5102334;28;19922;-67
2021/08/06 00:17:50;;;;;;;;;;;;;;;16.84;100.00;99507.03;5116954;28;19965;-67
2021/08/06 00:20:35;;;;;;;;;;;;;;;16.80;100.00;99521.09;5116721;28;20392;-67
2021/08/06 00:23:19;;;;;;;;;;;;;;;16.74;100.00;99514.66;5102683;28;19985;-67
2021/08/06 00:26:03;;;;;;;;;;;;;;;16.69;100.00;99503.66;5117792;28;19980;-67
2021/08/06 00:28:47;;;;;;;;;;;;;;;16.66;100.00;99504.06;5117754;28;19923;-67
2021/08/06 00:31:31;;;;;;;;;;;;;;;16.65;100.00;99507.78;5117037;28;19968;-67
2021/08/06 00:34:15;;;;;;;;;;;;;;;16.65;100.00;99497.03;5116760;28;19968;-67
2021/08/06 00:36:59;;;;;;;;;;;;;;;16.62;100.00;99502.81;5116615;28;19927;-67
2021/08/06 00:39:43;;;;;;;;;;;;;;;16.60;100.00;99499.47;5101888;28;19923;-67
2021/08/06 00:42:26;;;;;;;;;;;;;;;16.57;100.00;99491.00;5117593;28;19965;-67
2021/08/06 00:45:11;;;;;;;;;;;;;;;16.54;100.00;99497.59;5117538;28;20291;-67
2021/08/06 00:47:54;;;;;;;;;;;;;;;16.53;100.00;99495.09;5117094;28;20288;-67
2021/08/06 00:50:38;;;;;;;;;;;;;;;16.50;100.00;99495.50;5116358;28;19947;-67
2021/08/06 00:53:22;;;;;;;;;;;;;;;16.51;100.00;99489.94;5116652;28;20363;-67
2021/08/06 00:56:07;;;;;;;;;;;;;;;16.52;100.00;99486.22;5117185;28;20296;-67
2021/08/06 00:58:51;;;;;;;;;;;;;;;16.48;100.00;99487.63;5116007;28;19965;-67
2021/08/06 01:01:34;;;;;;;;;;;;;;;16.48;100.00;99484.94;5115940;28;19981;-67
2021/08/06 01:04:26;;;;;;;;;;;;;;;16.47;100.00;99488.66;5101688;28;19926;-67
2021/08/06 01:07:16;;;;;;;;;;;;;;;16.46;100.00;99489.69;5115731;28;19923;-67
2021/08/06 01:10:02;;;;;;;;;;;;;;;16.44;100.00;99483.69;5116689;28;20437;-67
2021/08/06 01:12:54;;;;;;;;;;;;;;;16.36;100.00;99481.16;5100818;28;20337;-67
2021/08/06 01:15:38;;;;;;;;;;;;;;;16.33;100.00;99481.53;5101549;28;20044;-67
2021/08/06 01:18:22;;;;;;;;;;;;;;;16.31;100.00;99472.84;5101440;28;19961;-67
2021/08/06 01:21:09;;;;;;;;;;;;;;;16.32;100.00;99473.66;5115843;28;20330;-67
2021/08/06 01:23:53;;;;;;;;;;;;;;;16.32;100.00;99479.88;5101194;28;20012;-67
2021/08/06 01:26:37;;;;;;;;;;;;;;;16.36;100.00;99488.44;5115681;28;19922;-67
2021/08/06 01:29:21;;;;;;;;;;;;;;;16.30;100.00;99481.94;5115308;28;20017;-67
2021/08/06 01:32:05;;;;;;;;;;;;;;;16.30;100.00;99481.94;5116528;28;19966;-67
2021/08/06 01:34:48;;;;;;;;;;;;;;;16.25;100.00;99479.00;5116555;28;19926;-67
2021/08/06 01:37:32;;;;;;;;;;;;;;;16.23;100.00;99475.69;5116190;28;19965;-67
2021/08/06 01:40:16;;;;;;;;;;;;;;;16.20;100.00;99476.09;5115328;28;19923;-67
2021/08/06 01:43:14;;;;;;;;;;;;;;;16.20;100.00;99481.47;5116374;28;20280;-67
2021/08/06 01:45:59;;;;;;;;;;;;;;;16.19;100.00;99476.28;5115262;28;20395;-67
2021/08/06 01:48:46;;;;;;;;;;;;;;;16.20;100.00;99481.47;5101004;28;19923;-67
2021/08/06 01:51:32;;;;;;;;;;;;;;;16.20;100.00;99473.41;5114980;28;19969;-67
2021/08/06 01:54:16;;;;;;;;;;;;;;;16.21;100.00;99482.28;5114908;28;19922;-67
2021/08/06 01:57:00;;;;;;;;;;;;;;;16.19;100.00;99485.16;5115112;28;19922;-67
2021/08/06 01:59:44;;;;;;;;;;;;;;;16.17;100.00;99479.16;5115066;28;19922;-67
2021/08/06 02:02:28;;;;;;;;;;;;;;;16.21;100.00;99469.69;5100568;28;20303;-67
2021/08/06 02:05:12;;;;;;;;;;;;;;;16.26;100.00;99480.66;5115967;28;19937;-67
2021/08/06 02:07:55;;;;;;;;;;;;;;;16.29;100.00;99466.81;5114485;28;19923;-67
2021/08/06 02:10:39;;;;;;;;;;;;;;;16.33;100.00;99464.56;5114478;28;19928;-67
2021/08/06 02:13:23;;;;;;;;;;;;;;;16.36;100.00;99470.41;5115467;28;20288;-67
2021/08/06 02:16:07;;;;;;;;;;;;;;;16.40;100.00;99466.28;5100498;28;19922;-67
2021/08/06 02:18:51;;;;;;;;;;;;;;;16.45;100.00;99468.38;5115396;28;19923;-67
2021/08/06 02:21:35;;;;;;;;;;;;;;;16.49;100.00;99470.47;5114399;28;20000;-67
2021/08/06 02:24:19;;;;;;;;;;;;;;;16.49;100.00;99472.34;5114243;28;19926;-67
2021/08/06 02:27:03;;;;;;;;;;;;;;;16.50;100.00;99468.59;5114188;28;19923;-67
2021/08/06 02:29:47;;;;;;;;;;;;;;;16.52;100.00;99463.84;5114430;28;20415;-67
2021/08/06 02:32:31;;;;;;;;;;;;;;;16.55;100.00;99461.59;5114736;28;19993;-67
2021/08/06 02:35:14;;;;;;;;;;;;;;;16.58;100.00;99461.19;5114096;28;19926;-67
2021/08/06 02:37:59;;;;;;;;;;;;;;;16.58;100.00;99455.78;5113983;28;19984;-67
2021/08/06 02:40:43;;;;;;;;;;;;;;;16.60;100.00;99461.81;5114248;28;19922;-67
2021/08/06 02:43:26;;;;;;;;;;;;;;;16.61;100.00;99462.66;5115035;28;20059;-67
2021/08/06 02:46:10;;;;;;;;;;;;;;;16.61;100.00;99459.97;5114060;28;19941;-67
2021/08/06 02:48:54;;;;;;;;;;;;;;;16.62;100.00;99453.53;5115051;28;19922;-67
2021/08/06 02:51:38;;;;;;;;;;;;;;;16.66;100.00;99447.56;5113789;28;19922;-68
2021/08/06 02:54:22;;;;;;;;;;;;;;;16.68;100.00;99450.06;5115304;28;19988;-67
2021/08/06 02:57:05;;;;;;;;;;;;;;;16.69;100.00;99449.03;5099344;28;19923;-67
2021/08/06 02:59:51;;;;;;;;;;;;;;;16.71;100.00;99442.41;5113927;28;19965;-67
2021/08/06 03:02:35;;;;;;;;;;;;;;;16.69;100.00;99449.84;5114580;28;19923;-67
2021/08/06 03:05:19;;;;;;;;;;;;;;;16.73;100.00;99442.19;5114541;28;20336;-67
2021/08/06 03:08:02;;;;;;;;;;;;;;;16.72;100.00;99443.22;5113391;28;19968;-67
2021/08/06 03:10:46;;;;;;;;;;;;;;;16.70;100.00;99448.78;5114386;28;19943;-67
2021/08/06 03:13:30;;;;;;;;;;;;;;;16.71;100.00;99441.56;5099617;28;19945;-67
2021/08/06 03:16:14;;;;;;;;;;;;;;;16.75;100.00;99446.34;5113602;28;19926;-67
2021/08/06 03:18:58;;;;;;;;;;;;;;;16.75;100.00;99449.03;5113956;28;20380;-67
2021/08/06 03:21:42;;;;;;;;;;;;;;;16.76;100.00;99453.38;5113583;28;19923;-67
2021/08/06 03:24:26;;;;;;;;;;;;;;;16.75;100.00;99465.19;5113569;28;19931;-68
2021/08/06 03:27:10;;;;;;;;;;;;;;;16.72;100.00;99454.84;5114447;28;19965;-67
2021/08/06 03:29:54;;;;;;;;;;;;;;;16.75;100.00;99448.19;5113177;28;19942;-67
2021/08/06 03:32:38;;;;;;;;;;;;;;;16.76;100.00;99463.31;5113178;28;19969;-67
2021/08/06 03:35:22;;;;;;;;;;;;;;;16.85;100.00;99465.63;5114181;28;19922;-67
2021/08/06 03:38:16;;;;;;;;;;;;;;;16.78;100.00;99474.72;5098741;28;20376;-67
2021/08/06 03:41:00;;;;;;;;;;;;;;;16.75;100.00;99465.19;5113338;28;20280;-67
2021/08/06 03:43:44;;;;;;;;;;;;;;;16.71;100.00;99463.09;5114532;28;20285;-67
2021/08/06 03:46:28;;;;;;;;;;;;;;;16.61;100.00;99479.63;5113141;28;20085;-67
2021/08/06 03:49:12;;;;;;;;;;;;;;;16.60;100.00;99471.75;5114395;28;20019;-67
2021/08/06 03:51:56;;;;;;;;;;;;;;;16.51;100.00;99479.19;5114156;28;19922;-66
2021/08/06 03:54:39;;;;;;;;;;;;;;;16.60;100.00;99480.63;5113907;28;20052;-67
2021/08/06 03:57:24;;;;;;;;;;;;;;;16.55;100.00;99480.44;5112850;28;19922;-67
2021/08/06 04:00:08;;;;;;;;;;;;;;;16.56;100.00;99482.09;5113170;28;19923;-67
2021/08/06 04:02:52;;;;;;;;;;;;;;;16.55;100.00;99476.91;5113858;28;19941;-66
2021/08/06 04:05:36;;;;;;;;;;;;;;;16.51;100.00;99478.34;5113155;28;19929;-66
2021/08/06 04:08:20;;;;;;;;;;;;;;;16.52;100.00;99470.06;5113088;28;19923;-66
2021/08/06 04:11:04;;;;;;;;;;;;;;;16.49;100.00;99475.84;5113683;28;20292;-66
2021/08/06 04:13:48;;;;;;;;;;;;;;;16.46;100.00;99473.56;5114061;28;19922;-66
2021/08/06 04:16:32;;;;;;;;;;;;;;;16.46;100.00;99465.47;5112993;28;20280;-65
2021/08/06 04:19:16;;;;;;;;;;;;;;;16.42;100.00;99469.63;5113691;28;19958;-66
2021/08/06 04:21:59;;;;;;;;;;;;;;;16.45;100.00;99474.59;5112962;28;19968;-65
2021/08/06 04:24:43;;;;;;;;;;;;;;;16.43;100.00;99465.06;5113630;28;20459;-66
2021/08/06 04:27:27;;;;;;;;;;;;;;;16.40;100.00;99466.28;5112787;28;19953;-66
2021/08/06 04:30:12;;;;;;;;;;;;;;;16.39;100.00;99461.13;5113533;28;19926;-66
2021/08/06 04:32:56;;;;;;;;;;;;;;;16.41;100.00;99462.59;5113854;28;20276;-66
2021/08/06 04:35:39;;;;;;;;;;;;;;;16.36;100.00;99470.41;5113755;28;20296;-65
2021/08/06 04:38:23;;;;;;;;;;;;;;;16.36;100.00;99472.28;5113722;28;20007;-66
2021/08/06 04:41:07;;;;;;;;;;;;;;;16.35;100.00;99474.09;5112692;28;19923;-66
2021/08/06 04:43:51;;;;;;;;;;;;;;;16.32;100.00;99469.13;5113726;28;19922;-65
2021/08/06 04:46:35;;;;;;;;;;;;;;;16.31;100.00;99462.09;5112663;28;19941;-66
2021/08/06 04:49:19;;;;;;;;;;;;;;;16.31;100.00;99454.03;5115829;28;19973;-66
2021/08/06 04:52:03;;;;;;;;;;;;;;;16.29;100.00;99456.06;5117144;28;20391;-65
2021/08/06 04:54:46;;;;;;;;;;;;;;;16.32;100.00;99450.31;5116427;28;19922;-66
2021/08/06 04:57:31;;;;;;;;;;;;;;;16.33;100.00;99459.19;5116238;28;19923;-66
2021/08/06 05:00:15;;;;;;;;;;;;;;;16.33;100.00;99454.66;5117234;28;19926;-66
2021/08/06 05:02:58;;;;;;;;;;;;;;;16.32;100.00;99455.69;5115939;28;19922;-65
2021/08/06 05:05:42;;;;;;;;;;;;;;;16.31;100.00;99455.88;5116977;28;19922;-66
2021/08/06 05:08:26;;;;;;;;;;;;;;;16.31;100.00;99451.34;5117096;28;20056;-66
2021/08/06 05:11:10;;;;;;;;;;;;;;;16.34;100.00;99450.94;5117029;28;20391;-66
2021/08/06 05:13:54;;;;;;;;;;;;;;;16.31;100.00;99462.09;5116709;28;20014;-66
2021/08/06 05:16:38;;;;;;;;;;;;;;;16.29;100.00;99460.63;5116781;28;19965;-66
2021/08/06 05:19:22;;;;;;;;;;;;;;;16.32;100.00;99447.59;5116677;28;20068;-66
2021/08/06 05:22:06;;;;;;;;;;;;;;;16.38;100.00;99438.75;5116518;28;20319;-66
2021/08/06 05:24:50;;;;;;;;;;;;;;;16.38;100.00;99446.81;5115743;28;20330;-65
2021/08/06 05:27:34;;;;;;;;;;;;;;;16.39;100.00;99451.16;5116599;28;19942;-65
2021/08/06 05:30:22;;;;;;;;;;;;;;;16.45;100.00;99445.00;5101084;28;20094;-65
2021/08/06 05:33:06;;;;;;;;;;;;;;;16.47;100.00;99459.06;5116273;28;20045;-66
2021/08/06 05:35:50;;;;;;;;;;;;;;;16.47;100.00;99459.06;5116193;28;20299;-66
2021/08/06 05:38:33;;;;;;;;;;;;;;;16.51;100.00;99451.44;5115743;28;19919;-66
2021/08/06 05:41:17;;;;;;;;;;;;;;;16.63;100.00;99455.19;5116184;28;19953;-67
2021/08/06 05:44:01;;;;;;;;;;;;;;;16.73;100.00;99464.56;5116356;28;19923;-67
2021/08/06 05:46:45;;;;;;;;;;;;;;;16.85;100.00;99460.25;5116245;28;19923;-66
2021/08/06 05:49:29;;;;;;;;;;;;;;;16.95;100.00;99458.00;5116129;28;19930;-66
2021/08/06 05:52:13;;;;;;;;;;;;;;;17.12;100.00;99459.28;5114901;28;20034;-67
2021/08/06 05:54:57;;;;;;;;;;;;;;;17.15;100.00;99461.53;5115887;28;19961;-66
2021/08/06 05:57:41;;;;;;;;;;;;;;;17.26;100.00;99462.78;5115775;28;20060;-66
2021/08/06 06:00:26;;;;;;;;;;;;;;;17.14;100.00;99469.81;5115878;28;20284;-67
2021/08/06 06:03:10;;;;;;;;;;;;;;;17.22;100.00;99473.16;5115304;28;19961;-67
2021/08/06 06:05:54;;;;;;;;;;;;;;;17.22;100.00;99489.31;5115784;28;19968;-67
2021/08/06 06:08:38;;;;;;;;;;;;;;;17.15;100.00;99487.63;5117399;28;20292;-63
2021/08/06 06:11:22;;;;;;;;;;;;;;;17.05;100.00;99493.44;5100679;28;20280;-63
2021/08/06 06:14:06;;;;;;;;;;;;;;;16.93;100.00;99504.97;5115825;28;19922;-63
2021/08/06 06:16:50;;;;;;;;;;;;;;;16.89;100.00;99509.94;5115418;28;19961;-63
2021/08/06 06:19:34;;;;;;;;;;;;;;;16.89;100.00;99511.81;5115411;28;20470;-63
2021/08/06 06:22:18;;;;;;;;;;;;;;;16.83;100.00;99510.78;5115387;28;19923;-63
2021/08/06 06:25:02;;;;;;;;;;;;;;;16.82;100.00;99501.03;5115276;28;19970;-62
2021/08/06 06:27:54;;;;;;;;;;;;;;;16.88;100.00;99502.91;5115482;28;19939;-63
2021/08/06 06:30:38;;;;;;;;;;;;;;;16.91;100.00;99501.66;5115112;28;19974;-63
2021/08/06 06:33:22;;;;;;;;;;;;;;;16.83;100.00;99516.16;5114426;28;19957;-63
2021/08/06 06:36:05;;;;;;;;;;;;;;;16.87;100.00;99508.50;5115070;28;20008;-63
2021/08/06 06:38:49;;;;;;;;;;;;;;;16.89;100.00;99506.44;5114293;28;19927;-63
2021/08/06 06:41:33;;;;;;;;;;;;;;;16.97;100.00;99507.06;5115321;28;19968;-62
2021/08/06 06:44:17;;;;;;;;;;;;;;;16.91;100.00;99507.06;5114898;28;19923;-63
2021/08/06 06:47:01;;;;;;;;;;;;;;;16.93;100.00;99507.69;5114811;28;20406;-63
2021/08/06 06:49:45;;;;;;;;;;;;;;;16.91;100.00;99513.25;5114044;28;20460;-63
2021/08/06 06:52:29;;;;;;;;;;;;;;;16.96;100.00;99531.50;5114782;28;19929;-62
2021/08/06 06:55:12;;;;;;;;;;;;;;;17.03;100.00;99532.34;5115022;28;19922;-63
2021/08/06 06:57:56;;;;;;;;;;;;;;;17.11;100.00;99533.00;5113687;28;20425;-63
2021/08/06 07:00:40;;;;;;;;;;;;;;;17.27;100.00;99540.72;5114975;28;20411;-62
2021/08/06 07:03:24;;;;;;;;;;;;;;;17.37;100.00;99546.56;5113576;28;19960;-63
2021/08/06 07:06:08;;;;;;;;;;;;;;;17.37;100.00;99543.03;5114616;28;19923;-63
2021/08/06 07:08:52;;;;;;;;;;;;;;;17.27;100.00;99545.25;5113453;28;19965;-62
2021/08/06 07:11:36;;;;;;;;;;;;;;;17.30;100.00;99545.69;5113918;28;20007;-62
2021/08/06 07:14:20;;;;;;;;;;;;;;;17.43;100.00;99539.53;5114658;28;19926;-64
2021/08/06 07:17:03;;;;;;;;;;;;;;;17.50;100.00;99557.34;5114652;28;19977;-63
2021/08/06 07:19:48;;;;;;;;;;;;;;;17.58;100.00;99559.84;5114621;28;19961;-63
2021/08/06 07:22:32;;;;;;;;;;;;;;;17.50;100.00;99562.75;5114304;28;20006;-62
2021/08/06 07:25:16;;;;;;;;;;;;;;;17.57;100.00;99555.50;5114378;28;20327;-63
2021/08/06 07:28:00;;;;;;;;;;;;;;;17.72;100.00;99566.09;5114409;28;19922;-63
2021/08/06 07:30:44;;;;;;;;;;;;;;;17.78;100.00;99566.09;5098949;28;19934;-63
2021/08/06 07:33:28;;;;;;;;;;;;;;;17.90;100.00;99564.44;5113852;28;20007;-63
2021/08/06 07:36:12;;;;;;;;;;;;;;;17.95;100.00;99559.25;5114520;28;19923;-63
2021/08/06 07:38:56;;;;;;;;;;;;;;;18.01;100.00;99565.69;5113913;28;19923;-63
2021/08/06 07:41:39;;;;;;;;;;;;;;;17.92;100.00;99566.94;5113852;28;20026;-62
2021/08/06 07:44:24;;;;;;;;;;;;;;;18.06;100.00;99569.41;5114373;28;19923;-63
2021/08/06 07:47:07;;;;;;;;;;;;;;;17.99;100.00;99576.66;5113990;28;19923;-63
2021/08/06 07:49:51;;;;;;;;;;;;;;;17.80;100.00;99574.81;5113350;28;19927;-63
2021/08/06 07:52:36;;;;;;;;;;;;;;;18.03;100.00;99590.56;5113947;28;19923;-62
2021/08/06 07:55:19;;;;;;;;;;;;;;;18.20;100.00;99573.75;5113177;28;19965;-63
2021/08/06 07:58:03;;;;;;;;;;;;;;;18.37;100.00;99566.91;5114187;28;20413;-63
2021/08/06 08:00:47;;;;;;;;;;;;;;;18.71;100.00;99572.84;5114050;28;19965;-63
2021/08/06 08:03:31;;;;;;;;;;;;;;;18.75;100.00;99575.94;5098778;28;19954;-63
2021/08/06 08:06:15;;;;;;;;;;;;;;;18.76;100.00;99578.44;5098555;28;19961;-63
2021/08/06 08:08:59;;;;;;;;;;;;;;;18.56;100.00;99588.44;5112897;28;19923;-62
2021/08/06 08:11:43;;;;;;;;;;;;;;;18.67;100.00;99592.38;5114112;28;20056;-63
2021/08/06 08:14:26;;;;;;;;;;;;;;;18.82;100.00;99595.66;5112959;28;19923;-63
2021/08/06 08:17:10;;;;;;;;;;;;;;;19.05;100.00;99590.56;5113106;28;19923;-63
2021/08/06 08:19:54;;;;;;;;;;;;;;;19.40;100.00;99591.91;5112717;28;19922;-63
2021/08/06 08:22:38;;;;;;;;;;;;;;;19.58;100.00;99589.31;5113954;28;19980;-63
2021/08/06 08:25:22;;;;;;;;;;;;;;;19.96;100.00;99580.06;5117592;28;19966;-63
2021/08/06 08:28:07;;;;;;;;;;;;;;;20.02;100.00;99598.09;5117569;28;19988;-63
2021/08/06 08:30:51;;;;;;;;;;;;;;;20.08;100.00;99591.00;5116716;28;20023;-63
2021/08/06 08:33:35;;;;;;;;;;;;;;;20.35;100.00;99597.84;5117801;28;19923;-63
2021/08/06 08:36:19;;;;;;;;;;;;;;;20.65;100.00;99587.97;5116525;28;19923;-63
2021/08/06 08:39:03;;;;;;;;;;;;;;;20.71;100.00;99576.25;5117687;28;19922;-63
2021/08/06 08:41:48;;;;;;;;;;;;;;;20.77;100.00;99586.16;5117371;28;19923;-63
2021/08/06 08:44:32;;;;;;;;;;;;;;;20.93;100.00;99581.00;5116621;28;19922;-64
2021/08/06 08:47:25;;;;;;;;;;;;;;;20.79;99.23;99573.22;5116309;28;19965;-63
2021/08/06 08:50:10;;;;;;;;;;;;;;;20.57;99.58;99580.97;5116246;28;19972;-64
2021/08/06 08:52:54;;;;;;;;;;;;;;;20.30;100.00;99595.00;5116411;28;20376;-63
2021/08/06 08:55:38;;;;;;;;;;;;;;;20.04;100.00;99595.22;5117260;28;20383;-63
2021/08/06 08:58:22;;;;;;;;;;;;;;;19.85;100.00;99617.81;5117042;28;19923;-63
2021/08/06 09:01:06;;;;;;;;;;;;;;;20.01;100.00;99606.44;5115727;28;20344;-63
2021/08/06 09:03:51;;;;;;;;;;;;;;;20.59;100.00;99595.09;5116221;28;20375;-64
2021/08/06 09:06:39;;;;;;;;;;;;;;;20.91;98.38;99593.13;5117178;28;19949;-64
2021/08/06 09:09:24;;;;;;;;;;;;;;;21.23;92.04;99601.69;5101276;28;19984;-64
2021/08/06 09:12:09;;;;;;;;;;;;;;;21.09;90.08;99590.38;5115727;28;19945;-64
2021/08/06 09:14:53;;;;;;;;;;;;;;;21.07;91.36;99587.09;5115986;28;19923;-63
2021/08/06 09:17:37;;;;;;;;;;;;;;;21.21;89.32;99600.25;5116857;28;19924;-63
2021/08/06 09:20:21;;;;;;;;;;;;;;;21.51;88.71;99593.75;5116861;28;19923;-64
2021/08/06 09:23:05;;;;;;;;;;;;;;;21.63;87.70;99589.22;5101072;28;19923;-64
2021/08/06 09:25:49;;;;;;;;;;;;;;;21.81;87.48;99589.16;5116388;28;19922;-64
2021/08/06 09:28:32;;;;;;;;;;;;;;;21.87;83.09;99590.97;5116340;28;19941;-64
2021/08/06 09:31:16;;;;;;;;;;;;;;;22.01;80.09;99603.25;5116201;28;20399;-63
2021/08/06 09:34:07;;;;;;;;;;;;;;;21.63;76.83;99608.22;5115139;28;19923;-64
2021/08/06 09:36:52;;;;;;;;;;;;;;;21.83;76.91;99614.22;5115316;28;19923;-64
2021/08/06 09:39:39;;;;;;;;;;;;;;;21.93;74.17;99603.63;5116222;28;19923;-64
2021/08/06 09:42:27;;;;;;;;;;;;;;;22.08;73.68;99592.31;5115168;28;19923;-64
2021/08/06 09:45:15;;;;;;;;;;;;;;;22.42;74.13;99595.06;5116301;28;19923;-64
2021/08/06 09:47:59;;;;;;;;;;;;;;;22.47;73.02;99606.06;5115339;28;19923;-64
2021/08/06 09:50:47;;;;;;;;;;;;;;;22.29;74.13;99606.13;5114749;28;19927;-64
2021/08/06 09:53:31;;;;;;;;;;;;;;;22.13;72.12;99601.41;5115781;28;19965;-64
2021/08/06 09:56:16;;;;;;;;;;;;;;;21.86;72.51;99605.59;5114456;28;19978;-63
2021/08/06 09:58:59;;;;;;;;;;;;;;;21.73;74.13;99613.09;5114927;28;19926;-63
2021/08/06 10:01:43;;;;;;;;;;;;;;;21.54;74.76;99617.72;5116002;28;19964;-64
2021/08/06 10:04:27;;;;;;;;;;;;;;;21.55;71.62;99623.97;5114787;28;19942;-64
2021/08/06 10:07:11;;;;;;;;;;;;;;;21.53;70.55;99626.94;5100148;28;19941;-63
2021/08/06 10:09:55;;;;;;;;;;;;;;;21.54;72.75;99628.59;5115564;28;19927;-64
2021/08/06 10:12:39;;;;;;;;;;;;;;;21.76;71.56;99621.63;5114896;28;19927;-64
2021/08/06 10:15:23;;;;;;;;;;;;;;;21.66;70.14;99602.34;5115775;28;19923;-64
2021/08/06 10:18:07;;;;;;;;;;;;;;;22.06;69.71;99600.69;5100274;28;19945;-64
2021/08/06 10:20:51;;;;;;;;;;;;;;;22.38;67.41;99610.16;5114562;28;20036;-64
2021/08/06 10:23:36;;;;;;;;;;;;;;;23.36;64.53;99592.81;5115880;28;20276;-64
2021/08/06 10:26:20;;;;;;;;;;;;;;;23.88;60.23;99588.94;5114541;28;19927;-64
2021/08/06 10:29:04;;;;;;;;;;;;;;;23.04;62.90;99610.59;5114181;28;19923;-66
2021/08/06 10:32:07;;;;;;;;;;;;;;;22.65;64.38;99611.38;5114521;28;19923;-66
2021/08/06 10:35:03;;;;;;;;;;;;;;;23.05;65.21;99601.41;5115766;28;20276;-66
2021/08/06 10:37:48;;;;;;;;;;;;;;;23.81;61.74;99618.16;5114039;28;20018;-66
2021/08/06 10:40:31;;;;;;;;;;;;;;;23.89;60.29;99612.34;5114028;28;19969;-66
2021/08/06 10:43:16;;;;;;;;;;;;;;;23.35;63.44;99596.56;5115235;28;20451;-64
2021/08/06 10:45:59;;;;;;;;;;;;;;;24.32;62.38;99597.00;5113963;28;20429;-66
2021/08/06 10:48:46;;;;;;;;;;;;;;;24.73;60.57;99612.91;5113142;28;21139;-66
2021/08/06 10:51:31;;;;;;;;;;;;;;;25.23;59.57;99585.53;5114993;28;19968;-64
2021/08/06 10:54:28;;;;;;;;;;;;;;;26.23;58.68;99575.66;5113748;28;19927;-64
2021/08/06 10:57:13;;;;;;;;;;;;;;;26.25;52.17;99589.88;5113371;28;20364;-63
2021/08/06 10:59:57;;;;;;;;;;;;;;;26.06;55.32;99580.41;5099302;28;19999;-66
2021/08/06 11:02:42;;;;;;;;;;;;;;;24.98;57.01;99582.44;5113679;28;19965;-63
2021/08/06 11:05:36;;;;;;;;;;;;;;;25.40;58.84;99581.66;5113346;28;19960;-64
2021/08/06 11:08:39;;;;;;;;;;;;;;;25.36;57.57;99585.97;5113482;28;19927;-64
2021/08/06 11:11:52;;;;;;;;;;;;;;;24.91;58.76;99579.91;5114767;28;20288;-67
2021/08/06 11:14:38;;;;;;;;;;;;;;;25.30;55.94;99595.16;5112204;28;19938;-66
2021/08/06 11:17:23;;;;;;;;;;;;;;;27.13;50.82;99571.59;5114491;28;19923;-64
2021/08/06 11:20:17;;;;;;;;;;;;;;;27.50;47.68;99573.09;5113280;28;19923;-66
2021/08/06 11:23:01;;;;;;;;;;;;;;;28.18;45.51;99574.56;5113270;28;20384;-66
2021/08/06 11:25:45;;;;;;;;;;;;;;;29.43;43.78;99566.88;5114473;28;19923;-64
2021/08/06 11:28:29;;;;;;;;;;;;;;;30.09;41.26;99566.19;5113229;28;19923;-64
2021/08/06 11:31:22;;;;;;;;;;;;;;;29.50;41.94;99566.56;5113300;28;19943;-64
2021/08/06 11:34:06;;;;;;;;;;;;;;;29.65;42.88;99555.50;5113443;28;19961;-65
2021/08/06 11:37:00;;;;;;;;;;;;;;;28.43;43.21;99567.16;5098880;28;19965;-64
2021/08/06 11:40:02;;;;;;;;;;;;;;;27.57;44.48;99561.88;5114049;28;19922;-64
2021/08/06 11:42:46;;;;;;;;;;;;;;;26.55;46.11;99581.91;5114363;28;19922;-66
2021/08/06 11:45:30;;;;;;;;;;;;;;;27.90;44.56;99556.75;5098846;28;19972;-64
2021/08/06 11:48:14;;;;;;;;;;;;;;;27.70;44.62;99566.81;5113938;28;20341;-64
2021/08/06 11:50:58;;;;;;;;;;;;;;;26.21;46.75;99588.72;5113119;28;19970;-64
2021/08/06 11:53:42;;;;;;;;;;;;;;;25.91;48.84;99580.28;5113436;28;19960;-64
2021/08/06 11:56:25;;;;;;;;;;;;;;;25.11;50.26;99580.16;5098725;28;19922;-67
2021/08/06 11:59:09;;;;;;;;;;;;;;;24.24;50.68;99613.78;5117718;28;19922;-67
2021/08/06 12:02:12;;;;;;;;;;;;;;;23.88;53.25;99602.53;5116910;28;19922;-66
2021/08/06 12:04:56;;;;;;;;;;;;;;;23.41;53.61;99601.06;5116683;28;19922;-67
2021/08/06 12:07:40;;;;;;;;;;;;;;;23.04;59.16;99621.47;5132914;22;20026;-66
2021/08/06 12:10:27;;;;;;;;;;;;;;;22.54;65.46;99619.53;5096653;28;20361;-65
2021/08/06 12:13:12;;;;;;;;;;;;;;;22.23;67.09;99611.69;5097670;28;19923;-65
2021/08/06 12:16:06;;;;;;;;;;;;;;;22.66;65.33;99613.03;5081861;28;19966;-66
2021/08/06 12:18:51;;;;;;;;;;;;;;;24.29;61.36;99610.31;5096377;28;19941;-66
2021/08/06 12:21:39;;;;;;;;;;;;;;;25.74;54.87;99609.59;5097588;28;19923;-65
2021/08/06 12:24:23;;;;;;;;;;;;;;;27.35;51.39;99605.91;5096327;28;20303;-66
2021/08/06 12:27:07;;;;;;;;;;;;;;;28.54;46.09;99617.34;5097491;28;20411;-67
2021/08/06 12:29:51;;;;;;;;;;;;;;;28.75;43.88;99619.75;5096486;28;19967;-66
2021/08/06 12:32:35;;;;;;;;;;;;;;;28.53;43.62;99612.97;5097180;28;19922;-67
2021/08/06 12:35:24;;;;;;;;;;;;;;;28.15;44.38;99614.28;5097359;28;20080;-66
2021/08/06 12:38:21;;;;;;;;;;;;;;;28.18;44.79;99600.06;5096481;28;20289;-67
2021/08/06 12:41:05;;;;;;;;;;;;;;;29.43;42.81;99605.31;5081741;28;20010;-66
2021/08/06 12:44:09;;;;;;;;;;;;;;;28.53;43.08;99627.47;5095935;28;19924;-65
2021/08/06 12:46:56;;;;;;;;;;;;;;;27.54;45.17;99607.03;5097187;28;19945;-67
2021/08/06 12:49:47;;;;;;;;;;;;;;;26.71;46.48;99611.00;5097254;28;19927;-66
2021/08/06 12:52:35;;;;;;;;;;;;;;;25.97;49.22;99609.28;5081702;28;19923;-66
2021/08/06 12:55:19;;;;;;;;;;;;;;;25.36;50.06;99623.34;5096109;28;19923;-67
2021/08/06 12:58:04;;;;;;;;;;;;;;;24.65;51.25;99615.25;5096917;28;19961;-67
2021/08/06 13:00:48;;;;;;;;;;;;;;;24.15;53.31;99604.38;5095911;28;19923;-67
2021/08/06 13:03:40;;;;;;;;;;;;;;;23.77;54.42;99606.13;5095806;28;19939;-67
2021/08/06 13:06:26;;;;;;;;;;;;;;;23.73;56.02;99609.56;5081410;28;20426;-67
2021/08/06 13:09:10;;;;;;;;;;;;;;;23.72;56.33;99600.56;5094257;28;20026;-66
2021/08/06 13:12:13;;;;;;;;;;;;;;;23.77;55.27;99608.00;5096613;28;19939;-66
2021/08/06 13:14:57;;;;;;;;;;;;;;;23.95;56.11;99610.53;5080987;28;20011;-67
2021/08/06 13:17:41;;;;;;;;;;;;;;;23.84;56.26;99614.97;5096113;28;19922;-67
2021/08/06 13:20:24;;;;;;;;;;;;;;;23.59;56.93;99644.41;5096100;28;19965;-64
2021/08/06 13:23:09;;;;;;;;;;;;;;;23.54;58.24;99617.09;5095397;28;20364;-67
2021/08/06 13:25:53;;;;;;;;;;;;;;;23.16;58.14;99608.72;5095007;28;20464;-67
2021/08/06 13:28:37;;;;;;;;;;;;;;;22.86;60.72;99623.50;5095078;28;19927;-67
2021/08/06 13:31:20;;;;;;;;;;;;;;;22.46;59.88;99625.31;5096241;28;19965;-68
2021/08/06 13:34:04;;;;;;;;;;;;;;;22.28;61.26;99623.50;5096246;28;20391;-67
2021/08/06 13:36:48;;;;;;;;;;;;;;;22.21;61.13;99620.03;5094858;28;20029;-67
2021/08/06 13:39:33;;;;;;;;;;;;;;;22.13;61.64;99623.13;5094881;28;19965;-67
2021/08/06 13:42:17;;;;;;;;;;;;;;;22.52;61.67;99616.22;5095105;28;20487;-66
2021/08/06 13:45:01;;;;;;;;;;;;;;;23.09;58.75;99632.47;5095978;28;19922;-65
2021/08/06 13:47:44;;;;;;;;;;;;;;;24.04;56.78;99607.16;5095572;28;19966;-67
2021/08/06 13:50:28;;;;;;;;;;;;;;;25.58;51.70;99603.13;5094847;28;19990;-67
2021/08/06 13:53:12;;;;;;;;;;;;;;;26.81;48.21;99597.38;5095518;28;19965;-67
2021/08/06 13:55:56;;;;;;;;;;;;;;;26.98;47.76;99613.34;5095854;28;19926;-67
2021/08/06 13:58:40;;;;;;;;;;;;;;;26.78;49.37;99584.25;5080414;28;19987;-65
2021/08/06 14:01:24;;;;;;;;;;;;;;;26.76;48.21;99602.84;5095421;28;19923;-67
2021/08/06 14:04:08;;;;;;;;;;;;;;;25.55;50.73;99611.84;5080303;28;20030;-67
2021/08/06 14:06:53;;;;;;;;;;;;;;;25.91;49.57;99594.75;5094883;28;20015;-66
2021/08/06 14:09:37;;;;;;;;;;;;;;;26.20;47.97;99593.38;5094100;28;20480;-66
2021/08/06 14:12:21;;;;;;;;;;;;;;;27.05;46.51;99580.28;5094212;28;20441;-66